Time;durP1;ratioP1;P1;durP2;ratioP2;P2;SDS_P1;SDS_P2;PMS_P1;PMS_P2;Temp;Humidity;BMP_temperature;BMP_pressure;BME280_temperature;BME280_humidity;BME280_pressure;Samples;Min_cycle;Max_cycle;Signal;HPM_P1;HPM_P2
2022/12/18 00:01:31;;;;;;;58.75;10.98;;;;;;;0.01;0.00;59042.03;5034743;28;20043;-55
2022/12/18 00:03:57;;;;;;;50.92;8.55;;;;;;;0.01;0.00;59042.03;5034283;28;20036;-54
2022/12/18 00:06:24;;;;;;;46.97;9.35;;;;;;;0.01;0.00;59042.03;5034436;28;20572;-55
2022/12/18 00:08:49;;;;;;;43.60;9.45;;;;;;;0.01;0.00;59042.03;5035174;28;20029;-54
2022/12/18 00:11:18;;;;;;;62.78;10.27;;;;;;;0.01;0.00;59042.03;5034621;28;20045;-56
2022/12/18 00:13:43;;;;;;;49.10;8.73;;;;;;;0.01;0.00;59042.03;5035805;28;20028;-56
2022/12/18 00:16:12;;;;;;;52.97;10.55;;;;;;;0.01;0.00;59042.03;5035557;28;20039;-53
2022/12/18 00:18:37;;;;;;;48.05;9.30;;;;;;;0.01;0.00;59042.03;5035234;28;20032;-55
2022/12/18 00:21:05;;;;;;;50.03;8.70;;;;;;;0.01;0.00;59042.03;5032723;28;20048;-57
2022/12/18 00:23:32;;;;;;;44.50;8.70;;;;;;;0.01;0.00;59042.03;5036040;28;20075;-56
2022/12/18 00:26:02;;;;;;;44.97;7.28;;;;;;;0.01;0.00;59042.03;5035259;28;20090;-55
2022/12/18 00:28:28;;;;;;;42.78;8.35;;;;;;;0.01;0.00;59042.03;5034118;28;20071;-53
2022/12/18 00:31:10;;;;;;;37.55;7.22;;;;;;;0.01;0.00;59042.03;5035085;28;20116;-54
2022/12/18 00:33:36;;;;;;;63.53;9.60;;;;;;;0.01;0.00;59042.03;5034947;28;20108;-53
2022/12/18 00:36:10;;;;;;;54.85;7.63;;;;;;;0.01;0.00;59042.03;5033375;28;20029;-53
2022/12/18 00:38:36;;;;;;;62.33;9.93;;;;;;;0.01;0.00;59042.03;5035307;28;20060;-54
2022/12/18 00:41:02;;;;;;;65.07;11.32;;;;;;;0.01;0.00;59042.03;5034173;28;20108;-53
2022/12/18 00:43:28;;;;;;;61.75;10.90;;;;;;;0.01;0.00;59042.03;5035194;28;20059;-53
2022/12/18 00:45:54;;;;;;;55.42;9.32;;;;;;;0.01;0.00;59042.03;5034828;28;20175;-54
2022/12/18 00:48:19;;;;;;;51.67;7.25;;;;;;;0.01;0.00;59042.03;5035545;28;20055;-53
2022/12/18 00:50:45;;;;;;;92.18;13.23;;;;;;;0.01;0.00;59042.03;5032029;28;20045;-55
2022/12/18 00:53:11;;;;;;;56.65;9.88;;;;;;;0.01;0.00;59042.03;5034907;28;20029;-53
2022/12/18 00:55:40;;;;;;;57.35;8.90;;;;;;;0.01;0.00;59042.03;5035190;28;20044;-54
2022/12/18 00:58:06;;;;;;;56.17;8.70;;;;;;;0.01;0.00;59042.03;5035213;28;20112;-56
2022/12/18 01:00:31;;;;;;;57.42;10.95;;;;;;;0.01;0.00;59042.03;5035035;28;20036;-53
2022/12/18 01:02:56;;;;;;;64.25;11.63;;;;;;;0.01;0.00;59042.03;5032201;28;20112;-53
2022/12/18 01:05:22;;;;;;;66.55;11.73;;;;;;;0.01;0.00;59042.03;5032029;28;20037;-52
2022/12/18 01:07:47;;;;;;;42.00;6.35;;;;;;;0.01;0.00;59042.03;5034473;28;20046;-52
2022/12/18 01:10:13;;;;;;;48.85;7.20;;;;;;;0.01;0.00;59042.03;5033621;28;21074;-52
2022/12/18 01:12:38;;;;;;;42.92;7.57;;;;;;;0.01;0.00;59042.03;5033044;28;20025;-52
2022/12/18 01:15:06;;;;;;;43.15;7.28;;;;;;;0.01;0.00;59042.03;5037456;28;20453;-54
2022/12/18 01:17:31;;;;;;;38.00;6.68;;;;;;;0.01;0.00;59042.03;5037658;28;20041;-54
2022/12/18 01:19:57;;;;;;;37.63;7.00;;;;;;;0.01;0.00;59042.03;5036818;28;20473;-52
2022/12/18 01:22:22;;;;;;;47.13;7.18;;;;;;;0.01;0.00;59042.03;5035819;28;20494;-52
2022/12/18 01:24:48;;;;;;;38.03;6.25;;;;;;;0.01;0.00;59042.03;5037957;28;20025;-52
2022/12/18 01:27:13;;;;;;;40.70;6.50;;;;;;;0.01;0.00;59042.03;5037502;28;20052;-52
2022/12/18 01:29:39;;;;;;;42.00;6.97;;;;;;;0.01;0.00;59042.03;5035865;28;20025;-53
2022/12/18 01:32:04;;;;;;;39.22;8.07;;;;;;;0.01;0.00;59042.03;5036455;28;20043;-52
2022/12/18 01:34:29;;;;;;;52.20;6.60;;;;;;;0.01;0.00;59042.03;5037364;28;20020;-52
2022/12/18 01:36:55;;;;;;;39.05;5.85;;;;;;;0.01;0.00;59042.03;5037672;28;20049;-52
2022/12/18 01:39:20;;;;;;;42.00;7.75;;;;;;;0.01;0.00;59042.03;5037535;28;20104;-54
2022/12/18 01:42:01;;;;;;;36.42;6.72;;;;;;;0.01;0.00;59042.03;5035918;28;20134;-53
2022/12/18 01:45:03;;;;;;;41.67;7.07;;;;;;;0.01;0.00;59042.03;5037359;28;20085;-54
2022/12/18 01:47:31;;;;;;;46.75;8.13;;;;;;;0.01;0.00;59042.03;5036613;28;20029;-52
2022/12/18 01:50:00;;;;;;;41.20;7.97;;;;;;;0.01;0.00;59042.03;5037579;28;20526;-52
2022/12/18 01:52:29;;;;;;;43.65;10.40;;;;;;;0.01;0.00;59042.03;5035840;28;20036;-52
2022/12/18 01:54:55;;;;;;;36.38;6.25;;;;;;;0.01;0.00;59042.03;5037309;28;20368;-52
2022/12/18 01:57:23;;;;;;;42.92;10.35;;;;;;;0.01;0.00;59042.03;5037395;28;20763;-54
2022/12/18 01:59:52;;;;;;;49.00;9.02;;;;;;;0.01;0.00;59042.03;5037326;28;20029;-54
2022/12/18 02:02:18;;;;;;;43.05;7.63;;;;;;;0.01;0.00;59042.03;5035889;28;20040;-52
2022/12/18 02:04:43;;;;;;;65.47;12.52;;;;;;;0.01;0.00;59042.03;5037055;28;20036;-52
2022/12/18 02:07:21;;;;;;;43.38;8.32;;;;;;;0.01;0.00;59042.03;5036284;28;20029;-53
2022/12/18 02:09:53;;;;;;;48.25;6.97;;;;;;;0.01;0.00;59042.03;5036582;28;20171;-53
2022/12/18 02:12:26;;;;;;;33.53;6.50;;;;;;;0.01;0.00;59042.03;5035973;28;20521;-52
2022/12/18 02:15:03;;;;;;;44.13;9.07;;;;;;;0.01;0.00;59042.03;5037583;28;20055;-52
2022/12/18 02:17:39;;;;;;;42.70;7.45;;;;;;;0.01;0.00;59042.03;5036771;28;20757;-52
2022/12/18 02:20:34;;;;;;;67.00;15.90;;;;;;;0.01;0.00;59042.03;5037158;28;20029;-52
2022/12/18 02:23:09;;;;;;;58.83;11.63;;;;;;;0.01;0.00;59042.03;5039316;28;20025;-52
2022/12/18 02:26:00;;;;;;;49.22;13.32;;;;;;;0.01;0.00;59042.03;5041120;28;20040;-52
2022/12/18 02:28:30;;;;;;;38.17;8.60;;;;;;;0.01;0.00;59042.03;5039610;28;20033;-54
2022/12/18 02:31:00;;;;;;;57.67;12.18;;;;;;;0.01;0.00;59042.03;5039589;28;20049;-52
2022/12/18 02:33:28;;;;;;;37.67;8.05;;;;;;;0.01;0.00;59042.03;5041241;28;20057;-53
2022/12/18 02:35:55;;;;;;;54.75;13.27;;;;;;;0.01;0.00;59042.03;5040922;28;20052;-52
2022/12/18 02:38:20;;;;;;;37.00;6.75;;;;;;;0.01;0.00;59042.03;5023179;28;20510;-52
2022/12/18 02:40:48;;;;;;;63.60;9.77;;;;;;;0.01;0.00;59042.03;5040138;28;20049;-53
2022/12/18 02:43:15;;;;;;;53.38;10.48;;;;;;;0.01;0.00;59042.03;5040156;28;20021;-52
2022/12/18 02:45:54;;;;;;;37.78;7.35;;;;;;;0.01;0.00;59042.03;5040272;28;20044;-52
2022/12/18 02:48:24;;;;;;;40.33;7.30;;;;;;;0.01;0.00;59042.03;5040922;28;20051;-52
2022/12/18 02:51:16;;;;;;;56.22;8.82;;;;;;;0.01;0.00;59042.03;5039306;28;20063;-54
2022/12/18 02:54:21;;;;;;;26.90;5.00;;;;;;;0.01;0.00;59042.03;5040765;28;20454;-53
2022/12/18 02:56:53;;;;;;;30.33;4.90;;;;;;;0.01;0.00;59042.03;5038815;28;20457;-52
2022/12/18 02:59:38;;;;;;;39.67;6.28;;;;;;;0.01;0.00;59042.03;5040209;28;20024;-53
2022/12/18 03:02:39;;;;;;;39.53;6.50;;;;;;;0.01;0.00;59042.03;5039328;28;20383;-53
2022/12/18 03:05:15;;;;;;;38.20;5.60;;;;;;;0.01;0.00;59042.03;5040655;28;20355;-52
2022/12/18 03:07:53;;;;;;;27.85;4.85;;;;;;;0.01;0.00;59042.03;5040051;28;20048;-51
2022/12/18 03:10:24;;;;;;;35.20;5.85;;;;;;;0.01;0.00;59042.03;5039931;28;20033;-52
2022/12/18 03:12:56;;;;;;;29.67;4.18;;;;;;;0.01;0.00;59042.03;5039560;28;20025;-52
2022/12/18 03:15:34;;;;;;;25.55;4.78;;;;;;;0.01;0.00;59042.03;5039752;28;20028;-52
2022/12/18 03:18:10;;;;;;;37.00;6.15;;;;;;;0.01;0.00;59042.03;5040960;28;20029;-52
2022/12/18 03:20:39;;;;;;;42.90;5.72;;;;;;;0.01;0.00;59042.03;5039177;28;20032;-53
2022/12/18 03:23:12;;;;;;;32.85;5.47;;;;;;;0.01;0.00;59042.03;5040001;28;20033;-53
2022/12/18 03:25:43;;;;;;;32.75;5.53;;;;;;;0.01;0.00;59042.03;5039854;28;20041;-54
2022/12/18 03:28:14;;;;;;;34.58;5.18;;;;;;;0.01;0.00;59042.03;5038276;28;20028;-52
2022/12/18 03:30:41;;;;;;;51.00;5.28;;;;;;;0.01;0.00;59042.03;5039070;28;20111;-53
2022/12/18 03:33:27;;;;;;;31.25;5.82;;;;;;;0.01;0.00;59042.03;5039540;28;20055;-52
2022/12/18 03:35:52;;;;;;;45.53;6.93;;;;;;;0.01;0.00;59042.03;5039147;28;20035;-52
2022/12/18 03:38:18;;;;;;;32.40;4.75;;;;;;;0.01;0.00;59042.03;5040094;28;20021;-52
2022/12/18 03:40:47;;;;;;;55.63;7.38;;;;;;;0.01;0.00;59042.03;5038747;28;20040;-52
2022/12/18 03:43:25;;;;;;;28.55;4.50;;;;;;;0.01;0.00;59042.03;5039500;28;20029;-54
2022/12/18 03:46:02;;;;;;;32.80;5.43;;;;;;;0.01;0.00;59042.03;5039263;28;20037;-53
2022/12/18 03:48:50;;;;;;;35.47;4.38;;;;;;;0.01;0.00;59042.03;5039918;28;20029;-52
2022/12/18 03:51:26;;;;;;;45.13;6.30;;;;;;;0.01;0.00;59042.03;5038273;28;20159;-52
2022/12/18 03:54:03;;;;;;;31.83;5.32;;;;;;;0.01;0.00;59042.03;5039948;28;20111;-52
2022/12/18 03:56:33;;;;;;;34.70;5.97;;;;;;;0.01;0.00;59042.03;5039389;28;20041;-54
2022/12/18 03:59:00;;;;;;;33.25;5.10;;;;;;;0.01;0.00;59042.03;5039875;28;20021;-52
2022/12/18 04:01:32;;;;;;;33.75;4.55;;;;;;;0.01;0.00;59042.03;5038152;28;20041;-51
2022/12/18 04:04:00;;;;;;;38.60;6.05;;;;;;;0.01;0.00;59042.03;5017035;28;20036;-53
2022/12/18 04:06:27;;;;;;;48.53;6.22;;;;;;;0.01;0.00;59042.03;5038933;28;20037;-53
2022/12/18 04:08:53;;;;;;;28.83;5.03;;;;;;;0.01;0.00;59042.03;5039574;28;20021;-52
2022/12/18 04:11:18;;;;;;;39.88;5.78;;;;;;;0.01;0.00;59042.03;5037527;28;20398;-54
2022/12/18 04:13:44;;;;;;;28.00;5.32;;;;;;;0.01;0.00;59042.03;5039637;28;20020;-53
2022/12/18 04:16:09;;;;;;;33.13;4.75;;;;;;;0.01;0.00;59042.03;5039034;28;20228;-52
2022/12/18 04:18:36;;;;;;;26.00;3.55;;;;;;;0.01;0.00;59042.03;5039053;28;20099;-52
2022/12/18 04:21:02;;;;;;;39.85;5.88;;;;;;;0.01;0.00;59042.03;5037335;28;20044;-54
2022/12/18 04:23:28;;;;;;;45.58;5.97;;;;;;;0.01;0.00;59042.03;5038676;28;20029;-52
2022/12/18 04:25:53;;;;;;;37.72;6.60;;;;;;;0.01;0.00;59042.03;5038130;28;20095;-53
2022/12/18 04:28:19;;;;;;;30.92;5.13;;;;;;;0.01;0.00;59042.03;5019511;28;20027;-52
2022/12/18 04:30:44;;;;;;;45.63;4.72;;;;;;;0.01;0.00;59042.03;5037712;28;20038;-52
2022/12/18 04:33:11;;;;;;;28.77;5.22;;;;;;;0.01;0.00;59042.03;5038396;28;20035;-52
2022/12/18 04:35:36;;;;;;;35.53;6.47;;;;;;;0.01;0.00;59042.03;5038236;28;20549;-55
2022/12/18 04:38:02;;;;;;;36.25;5.88;;;;;;;0.01;0.00;59042.03;5038936;28;20577;-52
2022/12/18 04:40:27;;;;;;;31.15;4.85;;;;;;;0.01;0.00;59042.03;5038444;28;20130;-53
2022/12/18 04:42:52;;;;;;;23.58;2.92;;;;;;;0.01;0.00;59042.03;5037537;28;20872;-53
2022/12/18 04:45:18;;;;;;;36.35;5.45;;;;;;;0.01;0.00;59042.03;5037669;28;20041;-52
2022/12/18 04:47:43;;;;;;;49.13;7.85;;;;;;;0.01;0.00;59042.03;5038273;28;20028;-53
2022/12/18 04:50:09;;;;;;;40.55;8.20;;;;;;;0.01;0.00;59042.03;5037895;28;20021;-52
2022/12/18 04:52:34;;;;;;;37.97;7.15;;;;;;;0.01;0.00;59042.03;5036738;28;20025;-53
2022/12/18 04:55:00;;;;;;;31.77;5.97;;;;;;;0.01;0.00;59042.03;5038255;28;20589;-53
2022/12/18 04:57:25;;;;;;;35.92;5.80;;;;;;;0.01;0.00;59042.03;5038208;28;20033;-52
2022/12/18 04:59:51;;;;;;;48.58;8.10;;;;;;;0.01;0.00;59042.03;5038242;28;20021;-52
2022/12/18 05:02:16;;;;;;;33.63;8.82;;;;;;;0.01;0.00;59042.03;5036651;28;20079;-53
2022/12/18 05:04:41;;;;;;;42.28;9.27;;;;;;;0.01;0.00;59042.03;5037412;28;20387;-52
2022/12/18 05:07:07;;;;;;;49.05;10.00;;;;;;;0.01;0.00;59042.03;5036766;28;20037;-54
2022/12/18 05:09:32;;;;;;;29.17;6.97;;;;;;;0.01;0.00;59042.03;5037283;28;20025;-52
2022/12/18 05:11:58;;;;;;;34.92;5.10;;;;;;;0.01;0.00;59042.03;5035443;28;20032;-53
2022/12/18 05:14:23;;;;;;;39.40;6.07;;;;;;;0.01;0.00;59042.03;5037126;28;20029;-54
2022/12/18 05:16:48;;;;;;;32.92;7.40;;;;;;;0.01;0.00;59042.03;5036870;28;20427;-51
2022/12/18 05:19:14;;;;;;;45.67;9.35;;;;;;;0.01;0.00;59042.03;5037288;28;20025;-53
2022/12/18 05:21:39;;;;;;;35.03;7.22;;;;;;;0.01;0.00;59042.03;5035889;28;20068;-52
2022/12/18 05:24:05;;;;;;;40.22;8.27;;;;;;;0.01;0.00;59042.03;5036796;28;20124;-53
2022/12/18 05:26:30;;;;;;;38.70;9.52;;;;;;;0.01;0.00;59042.03;5036790;28;20060;-51
2022/12/18 05:28:55;;;;;;;32.40;6.32;;;;;;;0.01;0.00;59042.03;5035368;28;20056;-56
2022/12/18 05:31:21;;;;;;;37.80;8.35;;;;;;;0.01;0.00;59042.03;5035754;28;20045;-52
2022/12/18 05:33:46;;;;;;;49.70;11.75;;;;;;;0.01;0.00;59042.03;5037009;28;20111;-53
2022/12/18 05:36:12;;;;;;;53.90;10.95;;;;;;;0.01;0.00;59042.03;5036447;28;20143;-52
2022/12/18 05:38:38;;;;;;;42.47;8.77;;;;;;;0.01;0.00;59042.03;5037125;28;20036;-53
2022/12/18 05:41:04;;;;;;;55.83;9.85;;;;;;;0.01;0.00;59042.03;5035765;28;20060;-52
2022/12/18 05:43:31;;;;;;;47.53;9.02;;;;;;;0.01;0.00;59042.03;5036674;28;20937;-53
2022/12/18 05:45:57;;;;;;;55.25;12.77;;;;;;;0.01;0.00;59042.03;5036150;28;20040;-52
2022/12/18 05:48:23;;;;;;;73.25;17.95;;;;;;;0.01;0.00;59042.03;5036468;28;20078;-52
2022/12/18 05:50:50;;;;;;;76.47;15.75;;;;;;;0.01;0.00;59042.03;5036109;28;20142;-52
2022/12/18 05:53:19;;;;;;;53.25;11.85;;;;;;;0.01;0.00;59042.03;5035529;28;20020;-52
2022/12/18 05:55:44;;;;;;;54.05;12.10;;;;;;;0.01;0.00;59042.03;5034783;28;20175;-54
2022/12/18 05:58:12;;;;;;;57.47;13.65;;;;;;;0.01;0.00;59042.03;5034669;28;20735;-52
2022/12/18 06:00:42;;;;;;;71.75;16.10;;;;;;;0.01;0.00;59042.03;5035222;28;20040;-52
2022/12/18 06:03:09;;;;;;;64.97;14.38;;;;;;;0.01;0.00;59042.03;4995784;28;1140318;-52
2022/12/18 06:05:41;;;;;;;47.25;12.30;;;;;;;0.01;0.00;59042.03;5037232;28;20113;-52
2022/12/18 06:08:06;;;;;;;;;;;;;;;0.01;0.00;59042.03;5036070;28;20032;-52
2022/12/18 06:10:32;;;;;;;44.03;10.52;;;;;;;0.01;0.00;59042.03;5035669;28;20002;-53
2022/12/18 06:12:58;;;;;;;57.00;13.32;;;;;;;0.01;0.00;59042.03;5035455;28;20025;-54
2022/12/18 06:15:24;;;;;;;36.72;7.88;;;;;;;0.01;0.00;59042.03;5037316;28;20028;-52
2022/12/18 06:17:49;;;;;;;66.97;13.77;;;;;;;0.01;0.00;59042.03;5035594;28;20024;-53
2022/12/18 06:20:15;;;;;;;36.17;7.88;;;;;;;0.01;0.00;59042.03;5036782;28;20025;-54
2022/12/18 06:22:40;;;;;;;51.95;13.95;;;;;;;0.01;0.00;59042.03;5036074;28;20021;-54
2022/12/18 06:25:06;;;;;;;57.75;13.93;;;;;;;0.01;0.00;59042.03;5037171;28;20240;-52
2022/12/18 06:27:33;;;;;;;57.58;13.18;;;;;;;0.01;0.00;59042.03;5037002;28;20045;-54
2022/12/18 06:29:58;;;;;;;57.53;13.43;;;;;;;0.01;0.00;59042.03;5037030;28;20549;-53
2022/12/18 06:32:24;;;;;;;56.83;13.98;;;;;;;0.01;0.00;59042.03;5036266;28;20065;-53
2022/12/18 06:34:49;;;;;;;43.40;11.98;;;;;;;0.01;0.00;59042.03;5037366;28;20025;-54
2022/12/18 06:37:15;;;;;;;44.30;10.57;;;;;;;0.01;0.00;59042.03;5037000;28;20151;-52
2022/12/18 06:39:40;;;;;;;50.88;9.88;;;;;;;0.01;0.00;59042.03;5037360;28;20035;-52
2022/12/18 06:42:05;;;;;;;65.82;16.15;;;;;;;0.01;0.00;59042.03;5035212;28;20047;-52
2022/12/18 06:44:31;;;;;;;46.78;11.20;;;;;;;0.01;0.00;59042.03;5037444;28;20039;-52
2022/12/18 06:46:56;;;;;;;43.83;10.05;;;;;;;0.01;0.00;59042.03;5036932;28;20119;-52
2022/12/18 06:49:21;;;;;;;42.70;7.40;;;;;;;0.01;0.00;59042.03;5036606;28;20025;-55
2022/12/18 06:51:47;;;;;;;47.42;10.93;;;;;;;0.01;0.00;59042.03;5035617;28;20028;-53
2022/12/18 06:54:12;;;;;;;49.92;11.35;;;;;;;0.01;0.00;59042.03;5037269;28;20017;-53
2022/12/18 06:56:38;;;;;;;47.03;11.20;;;;;;;0.01;0.00;59042.03;5036854;28;20051;-52
2022/12/18 06:59:03;;;;;;;47.67;12.52;;;;;;;0.01;0.00;59042.03;5037277;28;20112;-52
2022/12/18 07:01:28;;;;;;;42.95;9.32;;;;;;;0.01;0.00;59042.03;5035465;28;20044;-53
2022/12/18 07:03:55;;;;;;;48.28;11.95;;;;;;;0.01;0.00;59042.03;5036724;28;20090;-55
2022/12/18 07:06:23;;;;;;;50.58;11.32;;;;;;;0.01;0.00;59042.03;5036625;28;20583;-52
2022/12/18 07:08:49;;;;;;;35.72;8.48;;;;;;;0.01;0.00;59042.03;5039289;28;20028;-53
2022/12/18 07:11:16;;;;;;;52.38;9.30;;;;;;;0.01;0.00;59042.03;5039080;28;20474;-52
2022/12/18 07:13:41;;;;;;;41.47;10.07;;;;;;;0.01;0.00;59042.03;5040655;28;20025;-52
2022/12/18 07:16:12;;;;;;;41.28;10.13;;;;;;;0.01;0.00;59042.03;5040171;28;20059;-52
2022/12/18 07:18:38;;;;;;;61.97;13.73;;;;;;;0.01;0.00;59042.03;5038057;28;20081;-52
2022/12/18 07:21:09;;;;;;;60.45;12.57;;;;;;;0.01;0.00;59042.03;5038980;28;20033;-52
2022/12/18 07:23:35;;;;;;;65.63;14.33;;;;;;;0.01;0.00;59042.03;5039860;28;20025;-52
2022/12/18 07:26:05;;;;;;;60.05;12.43;;;;;;;0.01;0.00;59042.03;5039272;28;20271;-52
2022/12/18 07:28:31;;;;;;;55.35;13.75;;;;;;;0.01;0.00;59042.03;5040005;28;20028;-51
2022/12/18 07:30:57;;;;;;;58.50;13.18;;;;;;;0.01;0.00;59042.03;5038903;28;20041;-54
2022/12/18 07:33:22;;;;;;;52.33;11.48;;;;;;;0.01;0.00;59042.03;5040240;28;20021;-52
2022/12/18 07:35:47;;;;;;;41.42;8.68;;;;;;;0.01;0.00;59042.03;5039726;28;20086;-53
2022/12/18 07:38:13;;;;;;;51.90;12.52;;;;;;;0.01;0.00;59042.03;5040477;28;20032;-53
2022/12/18 07:40:38;;;;;;;74.45;15.02;;;;;;;0.01;0.00;59042.03;5038845;28;20043;-52
2022/12/18 07:43:03;;;;;;;54.80;13.80;;;;;;;0.01;0.00;59042.03;5038320;28;20029;-52
2022/12/18 07:45:29;;;;;;;66.63;16.17;;;;;;;0.01;0.00;59042.03;5040136;28;20032;-51
2022/12/18 07:47:54;;;;;;;53.70;12.57;;;;;;;0.01;0.00;59042.03;5039721;28;20110;-51
2022/12/18 07:50:19;;;;;;;56.50;13.63;;;;;;;0.01;0.00;59042.03;5037936;28;20025;-52
2022/12/18 07:52:45;;;;;;;60.85;15.07;;;;;;;0.01;0.00;59042.03;5038675;28;20048;-53
2022/12/18 07:55:10;;;;;;;65.63;16.02;;;;;;;0.01;0.00;59042.03;5038409;28;20099;-54
2022/12/18 07:57:35;;;;;;;51.83;9.90;;;;;;;0.01;0.00;59042.03;5040313;28;20697;-54
2022/12/18 08:00:01;;;;;;;65.03;13.93;;;;;;;0.01;0.00;59042.03;5039975;28;20022;-54
2022/12/18 08:02:29;;;;;;;43.97;9.52;;;;;;;0.01;0.00;59042.03;5029036;28;20044;-53
2022/12/18 08:04:55;;;;;;;56.35;13.23;;;;;;;0.01;0.00;59042.03;5036818;28;20024;-52
2022/12/18 08:07:20;;;;;;;39.97;11.38;;;;;;;0.01;0.00;59042.03;5041307;28;20043;-52
2022/12/18 08:09:45;;;;;;;61.92;15.73;;;;;;;0.01;0.00;59042.03;5041564;28;20031;-54
2022/12/18 08:12:11;;;;;;;28.63;7.35;;;;;;;0.01;0.00;59042.03;5037630;28;20600;-53
2022/12/18 08:14:37;;;;;;;43.47;11.10;;;;;;;0.01;0.00;59042.03;5041342;28;21014;-52
2022/12/18 08:17:02;;;;;;;47.75;12.55;;;;;;;0.01;0.00;59042.03;5035990;28;20168;-52
2022/12/18 08:19:27;;;;;;;34.67;8.27;;;;;;;0.01;0.00;59042.03;5040446;28;20025;-52
2022/12/18 08:21:53;;;;;;;84.45;13.85;;;;;;;0.01;0.00;59042.03;5035869;28;20037;-54
2022/12/18 08:24:18;;;;;;;60.92;14.07;;;;;;;0.01;0.00;59042.03;5040927;28;20029;-52
2022/12/18 08:26:43;;;;;;;41.17;11.60;;;;;;;0.01;0.00;59042.03;5039160;28;20032;-55
2022/12/18 08:29:12;;;;;;;48.20;11.75;;;;;;;0.01;0.00;59042.03;5041540;28;20029;-51
2022/12/18 08:31:37;;;;;;;36.20;11.68;;;;;;;0.01;0.00;59042.03;5039318;28;20130;-55
2022/12/18 08:34:02;;;;;;;34.20;10.25;;;;;;;0.01;0.00;59042.03;5041161;28;20430;-54
2022/12/18 08:36:28;;;;;;;47.72;12.05;;;;;;;0.01;0.00;59042.03;5032048;28;20820;-56
2022/12/18 08:38:54;;;;;;;43.05;11.95;;;;;;;0.01;0.00;59042.03;5041189;28;20764;-55
2022/12/18 08:41:20;;;;;;;48.20;12.48;;;;;;;0.01;0.00;59042.03;5036338;28;20068;-53
2022/12/18 08:46:42;;;;;;;44.53;11.50;;;;;;;0.01;0.00;59042.03;5040034;28;20079;-53
2022/12/18 08:49:08;;;;;;;106.70;16.15;;;;;;;0.01;0.00;59042.03;5033637;28;20086;-54
2022/12/18 08:51:34;;;;;;;61.45;16.08;;;;;;;0.01;0.00;59042.03;5038285;28;20112;-56
2022/12/18 08:54:00;;;;;;;35.72;9.13;;;;;;;0.01;0.00;59042.03;5040733;28;20794;-56
2022/12/18 08:56:25;;;;;;;47.85;12.90;;;;;;;0.01;0.00;59042.03;5040504;28;20712;-52
2022/12/18 08:58:53;;;;;;;50.78;11.27;;;;;;;0.01;0.00;59042.03;5040471;28;20021;-53
2022/12/18 09:01:18;;;;;;;32.90;6.65;;;;;;;0.01;0.00;59042.03;5036249;28;20037;-52
2022/12/18 09:03:51;;;;;;;52.97;15.23;;;;;;;0.01;0.00;59042.03;5038206;28;20032;-52
2022/12/18 09:06:17;;;;;;;;;;;;;;;0.01;0.00;59042.03;5040583;28;20037;-52
2022/12/18 09:08:44;;;;;;;38.33;8.55;;;;;;;0.01;0.00;59042.03;5040677;28;19924;-52
2022/12/18 09:11:14;;;;;;;47.65;11.55;;;;;;;0.01;0.00;59042.03;5038386;28;20095;-52
2022/12/18 09:13:39;;;;;;;38.80;10.07;;;;;;;0.01;0.00;59042.03;5040142;28;20029;-52
2022/12/18 09:16:04;;;;;;;47.38;11.88;;;;;;;0.01;0.00;59042.03;5039686;28;20116;-53
2022/12/18 09:18:30;;;;;;;49.40;12.02;;;;;;;0.01;0.00;59042.03;5038759;28;20345;-57
2022/12/18 09:20:55;;;;;;;41.67;10.10;;;;;;;0.01;0.00;59042.03;5039084;28;20071;-54
2022/12/18 09:23:21;;;;;;;35.92;9.05;;;;;;;0.01;0.00;59042.03;5040318;28;20078;-55
2022/12/18 09:25:46;;;;;;;50.30;12.57;;;;;;;0.01;0.00;59042.03;5040068;28;20039;-55
2022/12/18 09:28:14;;;;;;;52.25;12.50;;;;;;;0.01;0.00;59042.03;5040381;28;20036;-53
2022/12/18 09:30:41;;;;;;;63.20;14.23;;;;;;;0.01;0.00;59042.03;5038865;28;20045;-53
2022/12/18 09:33:06;;;;;;;46.63;10.77;;;;;;;0.01;0.00;59042.03;5039385;28;20033;-53
2022/12/18 09:35:32;;;;;;;46.42;12.68;;;;;;;0.01;0.00;59042.03;5040134;28;20029;-52
2022/12/18 09:37:57;;;;;;;42.05;12.20;;;;;;;0.01;0.00;59042.03;5039727;28;20124;-54
2022/12/18 09:40:25;;;;;;;49.97;13.40;;;;;;;0.01;0.00;59042.03;5039250;28;20052;-53
2022/12/18 09:43:02;;;;;;;56.53;17.33;;;;;;;0.01;0.00;59042.03;5038225;28;20025;-52
2022/12/18 09:45:30;;;;;;;43.40;11.57;;;;;;;0.01;0.00;59042.03;5038911;28;20048;-55
2022/12/18 09:47:56;;;;;;;44.78;12.90;;;;;;;0.01;0.00;59042.03;5038205;28;20017;-52
2022/12/18 09:50:35;;;;;;;59.17;13.15;;;;;;;0.01;0.00;59042.03;5039049;28;21005;-55
2022/12/18 09:53:09;;;;;;;53.38;12.32;;;;;;;0.01;0.00;59042.03;5037661;28;20036;-51
2022/12/18 09:55:38;;;;;;;53.83;14.63;;;;;;;0.01;0.00;59042.03;5036992;28;20079;-51
2022/12/18 09:58:16;;;;;;;41.22;10.43;;;;;;;0.01;0.00;59042.03;5039199;28;20053;-54
2022/12/18 10:00:41;;;;;;;52.47;11.48;;;;;;;0.01;0.00;59042.03;5038311;28;20610;-56
2022/12/18 10:03:15;;;;;;;51.13;12.90;;;;;;;0.01;0.00;59042.03;5038957;28;20044;-53
2022/12/18 10:05:55;;;;;;;41.30;11.98;;;;;;;0.01;0.00;59042.03;5038623;28;20125;-54
2022/12/18 10:08:48;;;;;;;52.72;12.95;;;;;;;0.01;0.00;59042.03;5039335;28;20029;-52
2022/12/18 10:11:28;;;;;;;52.97;15.15;;;;;;;0.01;0.00;59042.03;5036665;28;20605;-52
2022/12/18 10:14:00;;;;;;;53.85;16.23;;;;;;;0.01;0.00;59042.03;5039097;28;20028;-52
2022/12/18 10:16:34;;;;;;;;;;;;;;;0.01;0.00;59042.03;5039003;28;20068;-53
2022/12/18 10:19:18;;;;;;;51.72;13.48;;;;;;;0.01;0.00;59042.03;5036747;28;19916;-53
2022/12/18 10:22:01;;;;;;;83.30;13.43;;;;;;;0.01;0.00;59042.03;5025762;28;20033;-52
2022/12/18 10:24:42;;;;;;;55.88;15.80;;;;;;;0.01;0.00;59042.03;5032240;28;20569;-52
2022/12/18 10:27:14;;;;;;;55.00;14.05;;;;;;;0.01;0.00;59042.03;5038039;28;20051;-53
2022/12/18 10:29:42;;;;;;;53.17;12.50;;;;;;;0.01;0.00;59042.03;5038023;28;20029;-53
2022/12/18 10:32:15;;;;;;;40.00;9.90;;;;;;;0.01;0.00;59042.03;5037243;28;20052;-51
2022/12/18 10:34:40;;;;;;;51.97;12.65;;;;;;;0.01;0.00;59042.03;5038350;28;20102;-53
2022/12/18 10:37:12;;;;;;;52.30;15.43;;;;;;;0.01;0.00;59042.03;5038677;28;20032;-52
2022/12/18 10:39:38;;;;;;;51.03;13.85;;;;;;;0.01;0.00;59042.03;5038555;28;20040;-53
2022/12/18 10:42:19;;;;;;;52.13;13.02;;;;;;;0.01;0.00;59042.03;5037302;28;20036;-54
2022/12/18 10:44:45;;;;;;;54.95;12.02;;;;;;;0.01;0.00;59042.03;5042382;28;20108;-55
2022/12/18 10:47:15;;;;;;;50.70;11.63;;;;;;;0.01;0.00;59042.03;5040404;28;20561;-52
2022/12/18 10:49:54;;;;;;;44.70;10.52;;;;;;;0.01;0.00;59042.03;5039255;28;20025;-51
2022/12/18 10:52:25;;;;;;;31.90;7.28;;;;;;;0.01;0.00;59042.03;5039011;28;20036;-51
2022/12/18 10:54:54;;;;;;;39.50;11.60;;;;;;;0.01;0.00;59042.03;5041230;28;20387;-53
2022/12/18 10:57:25;;;;;;;42.80;11.50;;;;;;;0.01;0.00;59042.03;5041969;28;20037;-52
2022/12/18 10:59:56;;;;;;;36.10;9.13;;;;;;;0.01;0.00;59042.03;5042482;28;20777;-53
2022/12/18 11:02:34;;;;;;;47.50;12.50;;;;;;;0.01;0.00;59042.03;5040675;28;20029;-52
2022/12/18 11:05:00;;;;;;;40.05;10.00;;;;;;;0.01;0.00;59042.03;5042209;28;20028;-51
2022/12/18 11:07:48;;;;;;;41.10;11.90;;;;;;;0.01;0.00;59042.03;5041924;28;20761;-52
2022/12/18 11:10:18;;;;;;;48.40;12.23;;;;;;;0.01;0.00;59042.03;5041168;28;20124;-52
2022/12/18 11:12:44;;;;;;;38.20;11.07;;;;;;;0.01;0.00;59042.03;5041310;28;20033;-54
2022/12/18 11:15:23;;;;;;;41.83;11.85;;;;;;;0.01;0.00;59042.03;5041480;28;20139;-52
2022/12/18 11:17:50;;;;;;;32.08;9.02;;;;;;;0.01;0.00;59042.03;5039519;28;20079;-53
2022/12/18 11:20:18;;;;;;;42.22;10.80;;;;;;;0.01;0.00;59042.03;5012196;28;20031;-54
2022/12/18 11:22:55;;;;;;;40.30;11.05;;;;;;;0.01;0.00;59042.03;5040529;28;20635;-54
2022/12/18 11:25:21;;;;;;;53.40;12.13;;;;;;;0.01;0.00;59042.03;5039380;28;20087;-56
2022/12/18 11:28:25;;;;;;;49.20;14.43;;;;;;;0.01;0.00;59042.03;5040867;28;20134;-54
2022/12/18 11:31:17;;;;;;;54.85;12.10;;;;;;;0.01;0.00;59042.03;5040445;28;20045;-54
2022/12/18 11:33:51;;;;;;;41.73;11.70;;;;;;;0.01;0.00;59042.03;5041381;28;20148;-54
2022/12/18 11:36:17;;;;;;;37.63;10.50;;;;;;;0.01;0.00;59042.03;5041297;28;20043;-55
2022/12/18 11:38:46;;;;;;;33.28;8.55;;;;;;;0.01;0.00;59042.03;5041185;28;20052;-53
2022/12/18 11:41:20;;;;;;;43.47;11.25;;;;;;;0.01;0.00;59042.03;5039682;28;20770;-53
2022/12/18 11:43:55;;;;;;;48.33;11.77;;;;;;;0.01;0.00;59042.03;5041687;28;20116;-54
2022/12/18 11:46:30;;;;;;;42.30;9.80;;;;;;;0.01;0.00;59042.03;5022295;28;20029;-55
2022/12/18 11:49:01;;;;;;;46.40;11.23;;;;;;;0.01;0.00;59042.03;5038423;28;20028;-54
2022/12/18 11:51:35;;;;;;;38.42;10.15;;;;;;;0.01;0.00;59042.03;5039082;28;20490;-53